Time;durP1;ratioP1;P1;durP2;ratioP2;P2;SDS_P1;SDS_P2;PMS_P1;PMS_P2;Temp;Humidity;BMP_temperature;BMP_pressure;BME280_temperature;BME280_humidity;BME280_pressure;Samples;Min_cycle;Max_cycle;Signal;HPM_P1;HPM_P2
2022/08/19 00:02:57;;;;;;;23.27;16.42;;;;;;;21.66;80.82;99370.69;12233745;19;20006;-82
2022/08/19 00:07:00;;;;;;;25.70;15.55;;;;;;;21.68;80.45;99376.75;12230966;19;20010;-82
2022/08/19 00:11:02;;;;;;;26.38;16.55;;;;;;;21.70;80.78;99384.84;12211816;19;20352;-82
2022/08/19 00:15:06;;;;;;;23.40;16.13;;;;;;;21.71;80.49;99373.28;12233129;19;20011;-82
2022/08/19 00:19:13;;;;;;;21.70;15.23;;;;;;;21.73;80.45;99358.94;12231296;19;20085;-82
2022/08/19 00:23:15;;;;;;;19.90;15.07;;;;;;;21.69;81.17;99361.59;12210346;19;20003;-82
2022/08/19 00:27:17;;;;;;;21.35;16.02;;;;;;;21.68;81.20;99347.91;12231277;19;20023;-82
2022/08/19 00:31:27;;;;;;;21.23;15.35;;;;;;;21.66;81.22;99337.03;12229997;19;20011;-82
2022/08/19 00:35:29;;;;;;;21.40;15.98;;;;;;;21.65;81.66;99332.56;12207862;19;20018;-82
2022/08/19 00:39:31;;;;;;;23.25;15.25;;;;;;;21.64;81.72;99341.34;12229376;19;20037;-83
2022/08/19 00:43:33;;;;;;;20.27;15.65;;;;;;;21.59;81.95;99333.91;12208627;19;20010;-82
2022/08/19 00:47:42;;;;;;;23.73;17.17;;;;;;;21.58;81.36;99318.25;12227283;19;20011;-82
2022/08/19 00:52:13;;;;;;;21.80;15.90;;;;;;;21.56;81.67;99320.56;12227177;19;20038;-82
2022/08/19 00:56:17;;;;;;;24.85;17.05;;;;;;;21.58;80.67;99298.63;12204912;19;20010;-82
2022/08/19 01:00:19;;;;;;;23.10;16.25;;;;;;;21.55;80.49;99304.91;12229554;19;20019;-82
2022/08/19 01:04:42;;;;;;;25.23;16.73;;;;;;;21.52;80.81;99314.00;12227769;19;20006;-80
2022/08/19 01:08:56;;;;;;;27.60;18.30;;;;;;;21.51;79.33;99323.56;12203217;19;20018;-80
2022/08/19 01:13:17;;;;;;;24.05;16.30;;;;;;;21.57;78.79;99328.66;12222936;19;20006;-80
2022/08/19 01:17:23;;;;;;;21.77;15.90;;;;;;;21.61;78.18;99315.59;12202710;19;20025;-81
2022/08/19 01:21:52;;;;;;;25.02;16.45;;;;;;;21.67;78.36;99318.22;12224254;19;20003;-81
2022/08/19 01:25:55;;;;;;;22.67;15.80;;;;;;;21.68;77.91;99319.88;12167204;19;21265;-80
2022/08/19 01:30:04;;;;;;;23.05;16.20;;;;;;;21.67;78.17;99310.63;12226680;19;20011;-80
2022/08/19 01:34:38;;;;;;;22.73;15.00;;;;;;;21.64;78.40;99307.69;12212330;19;20034;-80
2022/08/19 01:38:42;;;;;;;20.52;14.75;;;;;;;21.60;78.57;99322.38;12225518;19;20692;-81
2022/08/19 01:42:45;;;;;;;20.70;15.57;;;;;;;21.57;78.79;99325.03;12226260;19;20018;-80
2022/08/19 01:46:48;;;;;;;21.27;14.77;;;;;;;21.57;78.85;99327.84;12201283;19;20014;-80
2022/08/19 01:50:49;;;;;;;23.35;14.88;;;;;;;21.57;79.46;99330.63;12226065;19;20006;-80
2022/08/19 01:54:51;;;;;;;20.47;15.23;;;;;;;21.55;78.69;99327.34;12224366;19;20037;-80
2022/08/19 01:59:01;;;;;;;20.67;13.80;;;;;;;21.53;79.94;99329.66;12204143;19;20017;-80
2022/08/19 02:03:03;;;;;;;22.60;16.02;;;;;;;21.53;79.68;99332.44;12223521;19;20013;-80
2022/08/19 02:07:07;;;;;;;22.35;16.15;;;;;;;21.50;80.18;99336.75;12222047;19;20006;-80
2022/08/19 02:11:26;;;;;;;22.25;15.07;;;;;;;21.45;80.94;99341.72;12202780;19;20066;-80
2022/08/19 02:15:28;;;;;;;21.08;15.18;;;;;;;21.41;80.94;99349.13;12221721;19;20013;-80
2022/08/19 02:19:32;;;;;;;23.88;16.45;;;;;;;21.36;80.99;99342.56;12216960;19;20018;-80
2022/08/19 02:23:34;;;;;;;23.92;15.68;;;;;;;21.29;81.42;99347.81;12224258;19;20386;-80
2022/08/19 02:27:43;;;;;;;21.50;16.33;;;;;;;21.21;81.75;99347.81;12221971;19;20003;-81
2022/08/19 02:31:53;;;;;;;23.98;16.45;;;;;;;21.12;81.88;99353.47;12199732;19;20020;-80
2022/08/19 02:35:55;;;;;;;21.98;16.83;;;;;;;21.07;82.21;99346.03;12219961;19;20014;-81
2022/08/19 02:40:02;;;;;;;22.50;16.30;;;;;;;21.02;82.59;99340.59;12221485;19;20016;-81
2022/08/19 02:44:13;;;;;;;22.00;15.45;;;;;;;20.91;82.53;99337.31;12200240;19;20015;-81
2022/08/19 02:48:53;;;;;;;24.40;16.15;;;;;;;20.80;83.29;99361.22;12220838;19;20007;-80
2022/08/19 02:52:57;;;;;;;24.02;16.98;;;;;;;20.68;83.47;99347.84;12197987;19;20046;-80
2022/08/19 02:56:58;;;;;;;;;;;;;;;20.55;84.14;99337.63;12225096;19;20011;-81
2022/08/19 03:01:01;;;;;;;27.37;17.00;;;;;;;20.42;84.47;99330.19;12224940;19;19919;-81
2022/08/19 03:05:09;;;;;;;23.27;16.67;;;;;;;20.33;85.25;99343.34;12199352;19;20017;-81
2022/08/19 03:09:11;;;;;;;24.02;17.25;;;;;;;20.26;85.59;99353.03;12219296;19;20097;-80
2022/08/19 03:13:17;;;;;;;31.47;17.23;;;;;;;20.24;86.07;99354.50;12220557;19;19999;-80
2022/08/19 03:17:20;;;;;;;23.42;16.00;;;;;;;20.21;86.48;99353.19;12196737;19;20002;-80
2022/08/19 03:21:24;;;;;;;25.60;16.85;;;;;;;20.19;87.14;99360.25;12220040;19;20003;-80
2022/08/19 03:25:26;;;;;;;23.75;16.83;;;;;;;20.18;87.49;99355.81;12219057;19;20010;-80
2022/08/19 03:29:31;;;;;;;26.52;16.92;;;;;;;20.20;87.82;99353.53;12195800;19;20006;-81
2022/08/19 03:33:34;;;;;;;25.00;17.33;;;;;;;20.24;87.55;99349.72;12217470;19;20478;-81
2022/08/19 03:37:36;;;;;;;23.98;17.80;;;;;;;20.27;88.14;99349.06;12195234;19;20022;-80
2022/08/19 03:41:44;;;;;;;24.38;17.35;;;;;;;20.28;88.32;99341.50;12219035;19;20057;-80
2022/08/19 03:45:49;;;;;;;24.90;17.08;;;;;;;20.27;88.92;99346.28;12216283;19;20486;-81
2022/08/19 03:49:51;;;;;;;23.27;16.55;;;;;;;20.23;88.76;99361.25;12197408;19;20073;-80
2022/08/19 03:53:54;;;;;;;22.88;16.17;;;;;;;20.23;88.58;99364.06;12219118;19;20010;-80
2022/08/19 03:57:56;;;;;;;24.33;16.60;;;;;;;20.25;88.85;99365.34;12214261;19;20083;-80
2022/08/19 04:02:09;;;;;;;24.05;16.88;;;;;;;20.25;88.47;99367.34;12196120;19;20486;-80
2022/08/19 04:06:15;;;;;;;23.42;16.95;;;;;;;20.14;88.95;99369.63;12216526;19;20015;-80
2022/08/19 04:10:17;;;;;;;25.42;17.20;;;;;;;20.10;89.19;99374.19;12217864;19;20011;-81
2022/08/19 04:14:22;;;;;;;23.77;16.65;;;;;;;20.10;89.49;99378.97;12195626;19;20006;-80
2022/08/19 04:18:24;;;;;;;25.63;17.10;;;;;;;20.11;89.98;99366.63;12216364;19;20022;-80
2022/08/19 04:22:25;;;;;;;25.02;17.55;;;;;;;20.15;89.46;99362.06;12222760;19;20010;-80
2022/08/19 04:26:32;;;;;;;24.15;16.92;;;;;;;20.18;89.82;99367.00;12206714;19;20067;-80
2022/08/19 04:30:47;;;;;;;25.08;16.80;;;;;;;20.15;89.90;99364.84;12230166;19;20392;-80
2022/08/19 04:34:49;;;;;;;26.45;16.85;;;;;;;20.13;89.67;99362.38;12205074;19;20105;-80
2022/08/19 04:39:16;;;;;;;23.80;16.90;;;;;;;20.09;90.08;99364.16;12229438;19;20079;-80
2022/08/19 04:43:17;;;;;;;23.48;16.65;;;;;;;20.02;90.74;99364.66;12265305;19;20013;-80
2022/08/19 04:47:19;;;;;;;27.77;18.38;;;;;;;19.99;90.54;99370.88;12243279;19;20010;-80
2022/08/19 04:51:43;;;;;;;28.17;17.60;;;;;;;19.97;90.80;99372.34;12232885;19;20070;-81
2022/08/19 04:55:45;;;;;;;26.17;17.70;;;;;;;19.97;90.63;99378.78;12207575;19;20013;-80
2022/08/19 04:59:48;;;;;;;26.83;17.02;;;;;;;19.97;91.12;99367.59;12229209;19;20033;-80
2022/08/19 05:03:50;;;;;;;25.20;17.83;;;;;;;20.02;90.84;99377.81;12229179;19;20006;-80
2022/08/19 05:07:52;;;;;;;28.58;18.15;;;;;;;20.07;90.54;99382.41;12204796;19;20022;-81
2022/08/19 05:11:53;;;;;;;25.95;17.80;;;;;;;20.09;90.26;99392.13;12228570;19;20467;-80
2022/08/19 05:15:57;;;;;;;26.13;17.83;;;;;;;20.17;90.43;99387.75;12228735;19;20019;-81
2022/08/19 05:24:22;;;;;;;23.35;16.90;;;;;;;20.37;90.44;99380.69;12227372;19;20498;-80
2022/08/19 05:28:24;;;;;;;23.92;17.98;;;;;;;20.51;90.07;99391.78;12224778;19;20018;-80
2022/08/19 05:32:25;;;;;;;26.45;17.20;;;;;;;20.65;89.69;99393.31;12204018;19;20490;-82
2022/08/19 05:36:32;;;;;;;25.95;18.30;;;;;;;20.75;89.60;99406.16;12222316;19;20003;-81
2022/08/19 05:40:38;;;;;;;26.63;18.25;;;;;;;20.77;88.68;99401.06;12206245;19;20010;-81
2022/08/19 05:44:43;;;;;;;28.05;18.83;;;;;;;20.78;87.95;99394.31;12225730;19;20090;-81
2022/08/19 05:48:45;;;;;;;26.15;17.67;;;;;;;20.80;87.51;99403.22;12225962;19;20017;-81
2022/08/19 05:52:47;;;;;;;25.48;16.77;;;;;;;20.83;86.88;99405.34;12203705;19;20003;-81
2022/08/19 05:56:52;;;;;;;26.08;17.80;;;;;;;20.89;86.67;99408.81;12222051;19;20011;-81
2022/08/19 06:00:54;;;;;;;28.42;18.25;;;;;;;20.96;86.06;99423.16;12227665;19;20351;-82
2022/08/19 06:04:56;;;;;;;23.92;17.95;;;;;;;21.00;85.59;99421.34;12202909;19;20022;-82
2022/08/19 06:08:58;;;;;;;27.35;18.05;;;;;;;21.11;85.44;99433.84;12224994;19;20002;-82
2022/08/19 06:13:00;;;;;;;27.48;18.60;;;;;;;21.24;84.73;99437.66;12224906;19;20424;-81
2022/08/19 06:17:03;;;;;;;28.38;17.95;;;;;;;21.35;83.98;99446.53;12202106;19;20408;-82
2022/08/19 06:21:08;;;;;;;26.25;18.40;;;;;;;21.51;83.03;99449.72;12225018;19;20010;-81
2022/08/19 06:25:11;;;;;;;26.45;16.80;;;;;;;21.65;82.27;99457.91;12223479;19;20010;-81
2022/08/19 06:29:18;;;;;;;22.48;15.90;;;;;;;21.76;81.54;99460.03;12203223;19;20027;-81
2022/08/19 06:33:29;;;;;;;22.75;15.48;;;;;;;21.92;80.49;99468.78;12222152;19;20011;-81
2022/08/19 06:37:37;;;;;;;21.88;15.18;;;;;;;22.06;79.10;99469.38;12181304;19;20010;-82
2022/08/19 06:41:48;;;;;;;20.02;13.75;;;;;;;22.15;78.78;99458.13;12225748;19;20006;-81
2022/08/19 06:45:55;;;;;;;20.02;14.73;;;;;;;22.23;78.06;99468.53;12225185;19;20007;-82
2022/08/19 06:50:03;;;;;;;21.70;13.37;;;;;;;22.35;77.64;99476.25;12183936;19;20486;-81
2022/08/19 06:54:37;;;;;;;18.95;13.35;;;;;;;22.62;76.50;99486.19;12222267;19;20275;-81
2022/08/19 06:58:57;;;;;;;17.80;13.68;;;;;;;22.93;75.35;99480.25;12198546;19;20494;-82
2022/08/19 07:03:00;;;;;;;16.88;12.93;;;;;;;23.11;74.72;99483.78;12215574;19;20027;-81
2022/08/19 07:07:13;;;;;;;21.15;11.55;;;;;;;23.24;74.12;99486.66;12222022;19;20080;-81
2022/08/19 07:11:22;;;;;;;16.15;10.68;;;;;;;23.25;73.79;99491.94;12201815;19;20033;-81
2022/08/19 07:15:24;;;;;;;;;;;;;;;23.31;73.39;99496.19;12224609;19;20006;-82
2022/08/19 07:19:27;;;;;;;15.63;10.43;;;;;;;23.32;73.17;99482.94;12222914;19;19922;-82
2022/08/19 07:23:32;;;;;;;15.77;11.07;;;;;;;23.33;71.66;99488.22;12200913;19;20042;-81
2022/08/19 07:27:34;;;;;;;15.52;10.98;;;;;;;23.36;71.40;99484.72;12221195;19;20010;-81
2022/08/19 07:31:36;;;;;;;16.33;10.60;;;;;;;23.56;70.26;99485.09;12200157;19;20111;-81
2022/08/19 07:35:39;;;;;;;12.18;9.30;;;;;;;23.81;69.79;99491.66;12220561;19;20592;-81
2022/08/19 07:39:40;;;;;;;13.05;9.50;;;;;;;24.04;68.63;99487.25;12222579;19;20066;-81
2022/08/19 07:43:43;;;;;;;15.27;10.57;;;;;;;24.22;66.84;99485.06;12202124;19;20024;-82
2022/08/19 07:47:45;;;;;;;14.80;9.20;;;;;;;24.38;66.61;99490.03;12221657;19;20009;-81
2022/08/19 07:52:07;;;;;;;15.02;9.98;;;;;;;24.65;65.02;99499.81;12224813;19;20339;-82
2022/08/19 07:56:10;;;;;;;14.10;9.57;;;;;;;24.72;64.81;99485.97;12200210;19;20010;-81
2022/08/19 08:00:14;;;;;;;15.55;9.43;;;;;;;24.73;63.88;99487.59;12233723;19;20027;-81
2022/08/19 08:09:10;;;;;;;13.30;8.18;;;;;;;25.07;62.16;99479.81;12233129;19;20086;-81
2022/08/19 08:13:12;;;;;;;11.45;8.18;;;;;;;25.10;61.59;99481.91;12233017;19;20006;-81
2022/08/19 08:17:16;;;;;;;;;;;;;;;25.01;61.32;99488.50;12209455;19;20488;-82
2022/08/19 08:25:49;;;;;;;11.77;7.05;;;;;;;25.19;60.81;99491.09;12207954;19;20006;-82
2022/08/19 08:29:50;;;;;;;8.57;6.97;;;;;;;25.43;59.55;99482.59;12233088;19;20020;-82
2022/08/19 08:33:54;;;;;;;11.63;7.53;;;;;;;25.62;57.83;99475.47;12228179;19;20011;-82
2022/08/19 08:37:58;;;;;;;11.13;8.48;;;;;;;25.61;57.82;99471.81;12208230;19;20007;-82
2022/08/19 08:42:27;;;;;;;11.05;7.35;;;;;;;25.97;57.58;99488.94;12232465;19;20030;-82
2022/08/19 08:46:58;;;;;;;9.30;5.90;;;;;;;26.48;55.39;99477.81;12230482;19;20486;-82
2022/08/19 08:51:08;;;;;;;6.43;5.05;;;;;;;26.90;53.41;99477.25;12131250;19;2005847;-82
2022/08/19 08:55:14;;;;;;;10.80;6.85;;;;;;;27.00;52.22;99485.97;12271217;19;20003;-82
2022/08/19 08:59:22;;;;;;;8.00;5.57;;;;;;;27.20;51.02;99480.41;12257768;19;20003;-81
2022/08/19 09:03:27;;;;;;;8.48;5.80;;;;;;;26.91;51.86;99476.06;12283264;19;20016;-82
2022/08/19 09:07:56;;;;;;;6.63;5.15;;;;;;;26.85;52.10;99478.34;12241525;19;20096;-82
2022/08/19 09:12:28;;;;;;;7.05;5.60;;;;;;;26.79;51.52;99479.81;12238386;19;19998;-83
2022/08/19 09:16:30;;;;;;;8.32;5.70;;;;;;;26.89;51.80;99472.78;12228237;19;20040;-82
2022/08/19 09:20:32;;;;;;;9.63;5.65;;;;;;;26.93;49.90;99473.69;12231057;19;20412;-82
2022/08/19 09:24:35;;;;;;;8.82;5.38;;;;;;;26.88;50.34;99486.09;12233955;19;19999;-82
2022/08/19 09:28:37;;;;;;;7.38;5.13;;;;;;;27.07;49.66;99476.84;12210687;19;20393;-82
2022/08/19 09:32:42;;;;;;;8.82;4.95;;;;;;;27.25;49.37;99480.94;12232786;19;20092;-82
2022/08/19 09:36:43;;;;;;;6.78;5.35;;;;;;;27.25;49.67;99477.28;12232586;19;20025;-82
2022/08/19 09:40:45;;;;;;;7.80;6.30;;;;;;;27.13;49.62;99471.69;12217116;19;20014;-82
2022/08/19 09:44:47;;;;;;;9.95;6.63;;;;;;;27.03;49.76;99481.59;12236515;19;20002;-82
2022/08/19 09:48:54;;;;;;;8.07;5.72;;;;;;;26.81;49.59;99471.78;12235915;19;20043;-82
2022/08/19 09:52:56;;;;;;;7.35;5.82;;;;;;;27.33;49.60;99470.56;12244200;19;20007;-82
2022/08/19 09:57:02;;;;;;;10.45;6.00;;;;;;;27.90;47.18;99468.13;12269996;19;20011;-82
2022/08/19 10:01:09;;;;;;;10.20;6.82;;;;;;;27.67;47.54;99474.53;12265948;19;20333;-83
2022/08/19 10:09:31;;;;;;;9.45;7.07;;;;;;;27.34;48.80;99471.41;12229679;19;20023;-82
2022/08/19 10:13:41;;;;;;;9.45;7.20;;;;;;;27.21;48.59;99482.03;12212222;19;20007;-82
2022/08/19 10:17:42;;;;;;;10.68;7.93;;;;;;;26.97;49.28;99480.25;12241577;19;20016;-81
2022/08/19 10:21:55;;;;;;;16.58;9.18;;;;;;;27.29;49.11;99472.53;12262633;19;20414;-82
2022/08/19 10:26:01;;;;;;;8.32;7.35;;;;;;;27.86;47.22;99464.41;12238822;19;20018;-82
2022/08/19 10:30:03;;;;;;;9.77;7.25;;;;;;;28.36;46.33;99469.00;12261769;19;20017;-82
2022/08/19 10:34:10;;;;;;;9.82;7.25;;;;;;;28.84;45.36;99460.91;12259068;19;20014;-81
2022/08/19 10:38:28;;;;;;;15.98;8.35;;;;;;;29.26;43.25;99476.94;12233077;19;20015;-82
2022/08/19 10:42:34;;;;;;;8.10;6.82;;;;;;;29.33;43.42;99475.41;12232914;19;20013;-83
2022/08/19 10:46:41;;;;;;;8.98;7.55;;;;;;;29.18;43.37;99460.19;12207007;19;20010;-82
2022/08/19 10:59:44;;;;;;;8.30;6.70;;;;;;;29.70;41.24;99439.41;12204861;19;20006;-82
2022/08/19 11:03:45;;;;;;;9.20;7.50;;;;;;;29.17;41.42;99445.19;12226478;19;20007;-83
2022/08/19 11:07:50;;;;;;;8.60;7.65;;;;;;;29.17;42.00;99447.22;12216144;19;20083;-83
2022/08/19 11:11:53;;;;;;;8.35;6.90;;;;;;;29.61;40.34;99427.53;12273831;19;20044;-83
2022/08/19 11:15:58;;;;;;;9.02;7.47;;;;;;;29.80;39.84;99418.03;12264708;19;20031;-83
2022/08/19 11:20:06;;;;;;;11.38;9.05;;;;;;;29.96;39.34;99412.13;12206005;19;20027;-83
2022/08/19 11:24:11;;;;;;;8.85;7.93;;;;;;;29.92;38.47;99411.25;12227983;19;20002;-83
2022/08/19 11:28:13;;;;;;;7.97;7.18;;;;;;;29.66;38.30;99403.69;12229054;19;20015;-84
2022/08/19 11:32:15;;;;;;;10.30;7.65;;;;;;;29.89;37.83;99398.63;12203139;19;20007;-83
2022/08/19 11:36:19;;;;;;;11.10;7.10;;;;;;;30.18;37.82;99387.56;12224561;19;20006;-84
2022/08/19 11:40:20;;;;;;;11.57;8.15;;;;;;;30.23;36.67;99401.44;12228649;19;20010;-82
2022/08/19 11:44:22;;;;;;;9.52;8.52;;;;;;;30.40;37.14;99397.94;12204404;19;20011;-83
2022/08/19 11:48:25;;;;;;;9.60;8.63;;;;;;;31.12;36.23;99389.88;12225825;19;20016;-83
2022/08/19 11:52:27;;;;;;;11.18;9.93;;;;;;;31.09;36.00;99394.34;12225153;19;20007;-83
2022/08/19 11:56:28;;;;;;;8.85;7.70;;;;;;;30.26;35.90;99392.13;12203424;19;20021;-81
2022/08/19 12:00:30;;;;;;;9.05;8.00;;;;;;;30.28;36.35;99388.88;12222430;19;20002;-82
2022/08/19 12:04:32;;;;;;;8.98;8.07;;;;;;;30.04;36.44;99393.91;12203134;19;20011;-85
2022/08/19 12:08:34;;;;;;;10.48;8.50;;;;;;;30.19;36.59;99387.16;12222448;19;20023;-82
2022/08/19 12:12:40;;;;;;;10.55;9.45;;;;;;;31.28;34.11;99393.19;12224612;19;20030;-83
2022/08/19 12:16:45;;;;;;;12.38;10.18;;;;;;;32.38;33.60;99383.31;12201348;19;20010;-82
2022/08/19 12:20:56;;;;;;;11.57;10.47;;;;;;;33.20;32.22;99382.38;12222786;19;20006;-81
2022/08/19 12:24:58;;;;;;;13.07;11.77;;;;;;;32.36;32.04;99382.06;12225308;19;20036;-82
2022/08/19 12:28:59;;;;;;;13.98;11.38;;;;;;;31.32;34.53;99376.97;12202844;19;20027;-80
2022/08/19 12:33:01;;;;;;;11.93;10.73;;;;;;;31.82;33.06;99375.50;12224417;19;20074;-81
2022/08/19 12:37:04;;;;;;;;;;;;;;;31.46;34.20;99372.56;12223056;19;20023;-81
2022/08/19 12:41:09;;;;;;;11.57;9.85;;;;;;;32.47;31.85;99377.22;12200331;19;19910;-82
2022/08/19 12:45:13;;;;;;;11.75;10.13;;;;;;;33.23;30.64;99373.00;12230440;19;20009;-81
2022/08/19 12:49:15;;;;;;;10.25;9.18;;;;;;;33.13;30.79;99376.69;12236101;19;20045;-81
2022/08/19 12:53:37;;;;;;;9.63;8.73;;;;;;;33.50;29.68;99369.59;12213793;19;20011;-80
2022/08/19 12:57:40;;;;;;;8.25;7.45;;;;;;;33.52;28.93;99372.88;12230034;19;20475;-82
2022/08/19 13:01:43;;;;;;;8.55;7.75;;;;;;;33.45;28.88;99387.16;12212731;19;20010;-82
2022/08/19 13:05:45;;;;;;;7.25;6.55;;;;;;;32.45;29.61;99376.81;12234662;19;19998;-81
2022/08/19 13:09:46;;;;;;;;;;;;;;;31.94;30.22;99384.50;12235472;19;20066;-81
2022/08/19 13:13:50;;;;;;;7.00;6.35;;;;;;;31.64;30.99;99384.81;12212823;19;19910;-80
2022/08/19 13:17:53;;;;;;;7.40;6.65;;;;;;;32.84;29.13;99390.19;12233578;19;20013;-81
2022/08/19 13:21:55;;;;;;;8.35;6.93;;;;;;;32.27;29.91;99401.63;12232380;19;20002;-80
2022/08/19 13:26:04;;;;;;;7.72;6.75;;;;;;;31.26;30.48;99395.66;12209656;19;20024;-80
2022/08/19 13:34:35;;;;;;;6.32;5.72;;;;;;;34.14;27.07;99386.38;12228229;19;20006;-80
2022/08/19 13:38:37;;;;;;;6.15;5.57;;;;;;;35.80;25.62;99387.06;12233042;19;20023;-82
2022/08/19 13:42:40;;;;;;;6.80;5.95;;;;;;;37.67;23.63;99384.53;12234095;19;20023;-81
2022/08/19 13:46:44;;;;;;;8.57;6.10;;;;;;;38.42;23.32;99382.78;12208564;19;20015;-80
2022/08/19 13:50:49;;;;;;;9.85;6.88;;;;;;;38.10;23.45;99382.75;12234224;19;20006;-80
2022/08/19 13:54:50;;;;;;;7.18;5.85;;;;;;;36.97;23.78;99394.16;12231554;19;20487;-81
2022/08/19 13:58:53;;;;;;;6.00;5.25;;;;;;;37.13;23.86;99382.78;12208086;19;20010;-81
2022/08/19 14:02:59;;;;;;;6.03;5.00;;;;;;;37.55;22.14;99396.72;12230643;19;20002;-81
2022/08/19 14:07:01;;;;;;;5.93;5.25;;;;;;;38.57;21.49;99391.84;12232741;19;20011;-81
2022/08/19 14:11:02;;;;;;;5.38;4.88;;;;;;;38.29;21.30;99384.75;12210398;19;20002;-82
2022/08/19 14:15:09;;;;;;;5.47;4.80;;;;;;;37.79;21.50;99391.66;12232555;19;20040;-81
2022/08/19 14:19:11;;;;;;;7.25;4.93;;;;;;;36.44;22.87;99378.69;12228533;19;20019;-81
2022/08/19 14:23:13;;;;;;;5.15;4.65;;;;;;;35.48;23.33;99375.22;12206296;19;20294;-80
2022/08/19 14:27:15;;;;;;;5.13;4.63;;;;;;;34.61;24.25;99360.25;12231138;19;20007;-81
2022/08/19 14:31:18;;;;;;;5.35;4.57;;;;;;;34.07;24.27;99337.03;12230870;19;20054;-81
2022/08/19 14:35:21;;;;;;;5.13;4.50;;;;;;;33.70;25.47;99330.75;12204405;19;20013;-80
2022/08/19 14:39:23;;;;;;;6.28;4.85;;;;;;;33.69;25.43;99323.38;12229690;19;20006;-81
2022/08/19 14:43:25;;;;;;;6.32;4.53;;;;;;;33.20;26.09;99341.56;12227139;19;20007;-80
2022/08/19 14:47:26;;;;;;;5.00;4.32;;;;;;;32.78;26.38;99334.78;12201860;19;20006;-80
2022/08/19 14:51:28;;;;;;;6.88;4.40;;;;;;;32.52;26.96;99331.19;12226210;19;20014;-82
2022/08/19 14:55:31;;;;;;;9.45;5.05;;;;;;;32.67;27.20;99327.06;12213178;19;20020;-81
2022/08/19 14:59:34;;;;;;;6.10;5.50;;;;;;;32.97;26.77;99325.75;12220349;19;20051;-82
2022/08/19 15:03:36;;;;;;;6.93;5.53;;;;;;;32.73;26.73;99338.06;12225605;19;20478;-80
2022/08/19 15:07:39;;;;;;;7.50;5.72;;;;;;;32.25;26.88;99324.28;12202216;19;20348;-81
2022/08/19 15:11:42;;;;;;;6.38;5.40;;;;;;;31.95;27.11;99322.66;12225651;19;20011;-80
2022/08/19 15:15:45;;;;;;;7.55;5.75;;;;;;;31.71;27.62;99336.44;12228568;19;20373;-80
2022/08/19 15:19:46;;;;;;;7.20;5.65;;;;;;;31.41;28.26;99344.47;12202905;19;20015;-79
2022/08/19 15:23:49;;;;;;;7.05;6.15;;;;;;;31.33;28.43;99332.22;12225867;19;20537;-80
2022/08/19 15:27:52;;;;;;;6.97;5.68;;;;;;;31.35;28.16;99340.38;12225224;19;20021;-79
2022/08/19 15:31:57;;;;;;;6.85;6.15;;;;;;;31.31;27.86;99344.00;12206204;19;20024;-79
2022/08/19 15:35:59;;;;;;;9.65;6.35;;;;;;;31.10;28.28;99341.09;12224396;19;20018;-83
2022/08/19 15:40:01;;;;;;;7.75;6.00;;;;;;;31.04;28.04;99342.69;12226990;19;20019;-83
2022/08/19 15:44:07;;;;;;;;;;;;;;;30.98;28.07;99342.25;12204734;19;20021;-83
2022/08/19 15:48:09;;;;;;;5.60;5.10;;;;;;;31.03;27.92;99341.06;12227526;19;19922;-82
2022/08/19 15:52:11;;;;;;;6.88;5.32;;;;;;;31.11;28.26;99331.31;12227495;19;20019;-83
2022/08/19 15:56:14;;;;;;;6.18;5.13;;;;;;;31.12;27.80;99332.97;12198335;19;20011;-82
2022/08/19 16:09:01;;;;;;;6.03;5.40;;;;;;;30.74;27.94;99335.19;12221090;19;19999;-81
2022/08/19 16:13:04;;;;;;;5.50;4.85;;;;;;;30.64;28.46;99330.28;12222343;19;20225;-81
2022/08/19 16:17:10;;;;;;;6.75;5.07;;;;;;;30.69;28.57;99335.56;12198272;19;20014;-81
2022/08/19 16:21:16;;;;;;;7.32;5.00;;;;;;;30.71;28.58;99335.19;12230858;19;20404;-82
2022/08/19 16:25:17;;;;;;;6.80;4.95;;;;;;;30.59;28.65;99339.16;12232441;19;20035;-82
2022/08/19 16:29:21;;;;;;;6.32;4.55;;;;;;;30.52;28.74;99328.56;12208170;19;20013;-82
2022/08/19 16:33:39;;;;;;;5.93;5.00;;;;;;;30.38;28.94;99343.50;12230991;19;20361;-82
2022/08/19 16:37:41;;;;;;;6.72;5.03;;;;;;;30.31;28.78;99339.78;12207723;19;20007;-83
2022/08/19 16:41:44;;;;;;;7.38;4.85;;;;;;;30.24;29.28;99346.22;12227272;19;20030;-83
2022/08/19 16:45:53;;;;;;;9.70;4.80;;;;;;;30.24;29.86;99351.09;12230479;19;20393;-84
2022/08/19 16:49:55;;;;;;;7.25;6.00;;;;;;;30.13;29.15;99353.81;12209845;19;20025;-84
2022/08/19 16:53:56;;;;;;;9.18;5.80;;;;;;;29.88;30.18;99367.78;12229478;19;20014;-84
2022/08/19 16:58:03;;;;;;;7.70;5.55;;;;;;;29.91;29.95;99356.47;12227247;19;20006;-83
2022/08/19 17:02:04;;;;;;;8.10;5.57;;;;;;;29.95;29.78;99362.19;12208958;19;20011;-83
2022/08/19 17:06:14;;;;;;;7.32;6.10;;;;;;;29.92;30.35;99372.28;12229516;19;20014;-83
2022/08/19 17:10:21;;;;;;;7.18;5.75;;;;;;;29.93;30.50;99362.59;12228906;19;20066;-84
2022/08/19 17:14:22;;;;;;;8.55;6.00;;;;;;;29.89;30.53;99375.09;12211401;19;20506;-83
2022/08/19 17:18:25;;;;;;;7.20;6.25;;;;;;;29.81;30.72;99365.72;12236670;19;20010;-82
2022/08/19 17:22:34;;;;;;;8.25;6.00;;;;;;;29.72;30.81;99373.75;12214901;19;20435;-83
2022/08/19 17:26:36;;;;;;;7.40;6.53;;;;;;;29.59;30.82;99375.16;12236426;19;20019;-84
2022/08/19 17:30:38;;;;;;;7.97;6.07;;;;;;;29.52;31.25;99376.72;12236848;19;20356;-82
2022/08/19 17:34:40;;;;;;;9.93;6.35;;;;;;;29.49;31.31;99377.50;12216259;19;20002;-82
2022/08/19 17:38:41;;;;;;;7.05;6.25;;;;;;;29.43;31.20;99379.06;12268718;19;20010;-85
2022/08/19 17:42:44;;;;;;;8.57;6.53;;;;;;;29.29;31.66;99376.84;12279983;19;20011;-84
2022/08/19 17:46:45;;;;;;;11.07;6.63;;;;;;;29.18;32.01;99378.75;12231110;19;20007;-83
2022/08/19 17:50:47;;;;;;;9.27;7.22;;;;;;;29.08;32.35;99382.25;12242984;19;20025;-82
2022/08/19 17:54:49;;;;;;;9.67;6.70;;;;;;;29.00;32.49;99387.00;12241224;19;20007;-85
2022/08/19 17:58:51;;;;;;;8.15;6.53;;;;;;;28.90;32.41;99393.34;12211704;19;20210;-82
2022/08/19 18:03:03;;;;;;;7.43;6.30;;;;;;;28.73;32.32;99394.69;12238288;19;20014;-83
2022/08/19 18:07:07;;;;;;;7.32;6.05;;;;;;;28.65;32.30;99387.31;12237002;19;20003;-83
2022/08/19 18:11:10;;;;;;;7.65;6.32;;;;;;;28.55;32.45;99397.25;12214885;19;20010;-83
2022/08/19 18:15:12;;;;;;;7.88;6.75;;;;;;;28.37;32.97;99401.81;12236294;19;20017;-82
2022/08/19 18:19:14;;;;;;;7.97;6.18;;;;;;;28.14;32.83;99407.50;12236304;19;20003;-83
2022/08/19 18:23:16;;;;;;;6.47;5.77;;;;;;;27.91;33.00;99411.13;12211668;19;20013;-83
2022/08/19 18:27:37;;;;;;;7.83;5.97;;;;;;;27.72;33.44;99413.97;12233519;19;20010;-83
2022/08/19 18:31:39;;;;;;;10.65;6.32;;;;;;;27.54;33.53;99416.44;12213248;19;20267;-83
2022/08/19 18:35:47;;;;;;;11.43;5.13;;;;;;;27.34;33.50;99414.84;12230899;19;20007;-83
2022/08/19 18:52:49;;;;;;;6.45;4.43;;;;;;;26.54;34.11;99437.66;12220652;19;20019;-82
2022/08/19 18:56:54;;;;;;;6.03;4.83;;;;;;;26.37;34.25;99441.63;12237632;19;20459;-82
2022/08/19 19:00:57;;;;;;;6.40;5.03;;;;;;;26.22;34.28;99453.75;12235319;19;20007;-83
2022/08/19 19:04:59;;;;;;;8.77;5.30;;;;;;;26.06;34.93;99447.28;12209211;19;20006;-82
2022/08/19 19:09:14;;;;;;;6.93;5.15;;;;;;;25.90;35.36;99459.34;12229224;19;20002;-82
2022/08/19 19:13:15;;;;;;;6.30;5.25;;;;;;;25.72;35.70;99471.28;12230517;19;20365;-83
2022/08/19 19:17:21;;;;;;;6.93;5.33;;;;;;;25.58;35.77;99472.53;12210023;19;20010;-82
2022/08/19 19:21:24;;;;;;;8.68;5.50;;;;;;;25.43;36.57;99481.75;12230209;19;20378;-82
2022/08/19 19:25:26;;;;;;;10.15;5.25;;;;;;;25.24;36.86;99480.38;12234652;19;20026;-82
2022/08/19 19:29:49;;;;;;;7.85;5.78;;;;;;;25.09;37.08;99497.19;12221116;19;20074;-82
2022/08/19 19:33:54;;;;;;;8.93;5.78;;;;;;;24.98;37.40;99491.22;12234991;19;20003;-82
2022/08/19 19:37:56;;;;;;;12.23;8.00;;;;;;;24.91;37.45;99499.47;12212967;19;20014;-82
2022/08/19 19:41:58;;;;;;;10.88;7.55;;;;;;;24.87;37.66;99504.16;12237203;19;20007;-83
2022/08/19 19:46:00;;;;;;;10.75;6.85;;;;;;;24.85;37.73;99518.59;12241814;19;20014;-82